createdAt,value
2022-08-26T00:02:23.697Z,28.90
2022-08-26T00:04:52.779Z,26.30
2022-08-26T00:09:54.390Z,26.88
2022-08-26T00:12:35.851Z,32.28
2022-08-26T00:15:06.323Z,29.95
2022-08-26T00:17:37.007Z,30.33
2022-08-26T00:20:11.928Z,30.67
2022-08-26T00:22:40.899Z,33.75
2022-08-26T00:25:12.208Z,25.30
2022-08-26T00:27:41.846Z,32.33
2022-08-26T00:30:15.946Z,28.35
2022-08-26T00:32:53.745Z,27.08
2022-08-26T00:35:23.473Z,25.85
2022-08-26T00:37:53.008Z,23.88
2022-08-26T00:40:24.274Z,29.88
2022-08-26T00:42:53.625Z,39.45
2022-08-26T00:45:22.743Z,33.63
2022-08-26T00:47:57.259Z,36.92
2022-08-26T00:50:30.548Z,33.72
2022-08-26T00:53:03.388Z,35.42
2022-08-26T00:55:38.231Z,36.53
2022-08-26T00:58:08.806Z,33.97
2022-08-26T01:00:38.199Z,34.58
2022-08-26T01:03:11.630Z,38.78
2022-08-26T01:05:43.384Z,31.45
2022-08-26T01:08:12.448Z,34.78
2022-08-26T01:10:41.947Z,44.22
2022-08-26T01:13:15.193Z,33.90
2022-08-26T01:15:49.005Z,40.33
2022-08-26T01:18:20.605Z,37.17
2022-08-26T01:20:59.722Z,35.25
2022-08-26T01:23:34.744Z,43.47
2022-08-26T01:26:08.829Z,44.53
2022-08-26T01:28:51.409Z,43.03
2022-08-26T01:31:24.871Z,47.15
2022-08-26T01:34:00.805Z,33.58
2022-08-26T01:36:30.430Z,35.67
2022-08-26T01:39:00.975Z,34.92
2022-08-26T01:41:36.578Z,33.33
2022-08-26T01:44:09.796Z,36.08
2022-08-26T01:46:39.267Z,41.80
2022-08-26T01:49:09.814Z,40.97
2022-08-26T01:51:41.583Z,37.58
2022-08-26T01:54:13.748Z,43.25
2022-08-26T01:56:43.395Z,36.53
2022-08-26T01:59:17.509Z,35.30
2022-08-26T02:01:46.827Z,29.17
2022-08-26T02:04:22.535Z,37.67
2022-08-26T02:06:52.756Z,36.80
2022-08-26T02:09:25.757Z,31.67
2022-08-26T02:11:56.352Z,36.47
2022-08-26T02:14:29.154Z,29.90
2022-08-26T02:16:58.752Z,30.67
2022-08-26T02:19:32.713Z,39.63
2022-08-26T02:22:05.542Z,31.25
2022-08-26T02:24:50.106Z,45.65
2022-08-26T02:27:23.760Z,33.92
2022-08-26T02:29:56.573Z,40.22
2022-08-26T02:32:26.114Z,40.40
2022-08-26T02:34:56.279Z,39.60
2022-08-26T02:40:00.412Z,38.70
2022-08-26T02:42:29.567Z,39.47
2022-08-26T02:44:58.733Z,43.13
2022-08-26T02:47:29.213Z,38.88
2022-08-26T02:50:00.658Z,42.45
2022-08-26T02:52:29.857Z,39.80
2022-08-26T02:57:29.257Z,43.50
2022-08-26T02:59:58.781Z,51.28
2022-08-26T03:02:29.360Z,49.80
2022-08-26T03:05:02.183Z,50.05
2022-08-26T03:07:32.035Z,39.85
2022-08-26T03:16:01.493Z,40.33
2022-08-26T03:18:30.851Z,37.30
2022-08-26T03:21:00.338Z,48.10
2022-08-26T03:23:29.431Z,46.13
2022-08-26T03:25:59.898Z,43.08
2022-08-26T03:28:29.101Z,49.78
2022-08-26T03:30:57.857Z,48.42
2022-08-26T03:35:56.859Z,50.53
2022-08-26T03:38:26.315Z,45.55
2022-08-26T03:40:56.309Z,47.42
2022-08-26T03:43:27.959Z,51.47
2022-08-26T03:45:57.012Z,52.58
2022-08-26T03:48:26.596Z,46.03
2022-08-26T03:50:55.734Z,48.75
2022-08-26T03:53:26.871Z,46.50
2022-08-26T03:55:56.277Z,50.20
2022-08-26T03:58:28.044Z,43.30
2022-08-26T04:00:57.307Z,47.75
2022-08-26T04:03:41.050Z,50.05
2022-08-26T04:06:10.311Z,43.78
2022-08-26T04:08:39.551Z,50.78
2022-08-26T04:11:09.365Z,54.45
2022-08-26T04:13:40.813Z,46.55
2022-08-26T04:16:10.284Z,47.78
2022-08-26T04:18:46.565Z,53.05
2022-08-26T04:21:16.270Z,59.25
2022-08-26T04:23:46.955Z,49.75
2022-08-26T04:26:18.020Z,51.85
2022-08-26T04:28:49.193Z,61.40
2022-08-26T04:31:19.882Z,61.10
2022-08-26T04:33:50.958Z,66.03
2022-08-26T04:36:20.460Z,57.47
2022-08-26T04:38:50.745Z,51.95
2022-08-26T04:41:21.236Z,73.50
2022-08-26T04:43:52.663Z,61.67
2022-08-26T04:46:24.869Z,62.78
2022-08-26T04:48:55.221Z,60.50
2022-08-26T04:51:27.929Z,54.58
2022-08-26T04:53:57.747Z,57.88
2022-08-26T04:56:26.944Z,60.83
2022-08-26T04:58:57.585Z,62.17
2022-08-26T05:01:26.990Z,51.17
2022-08-26T05:03:56.307Z,51.30
2022-08-26T05:06:26.030Z,61.33
2022-08-26T05:08:56.070Z,54.63
2022-08-26T05:11:25.195Z,58.28
2022-08-26T05:13:54.201Z,56.10
2022-08-26T05:16:24.750Z,55.17
2022-08-26T05:18:54.986Z,62.17
2022-08-26T05:21:26.632Z,64.13
2022-08-26T05:23:56.736Z,61.03
2022-08-26T05:26:28.377Z,63.03
2022-08-26T05:28:58.283Z,75.95
2022-08-26T05:31:31.576Z,61.92
2022-08-26T05:34:03.684Z,73.82
2022-08-26T05:36:35.085Z,57.60
2022-08-26T05:39:06.010Z,64.47
2022-08-26T05:41:45.432Z,65.97
2022-08-26T05:44:18.845Z,50.10
2022-08-26T05:46:49.493Z,58.58
2022-08-26T05:49:20.414Z,53.10
2022-08-26T05:51:51.775Z,58.53
2022-08-26T05:54:22.382Z,65.13
2022-08-26T05:56:52.134Z,50.08
2022-08-26T05:59:24.658Z,58.92
2022-08-26T06:01:55.770Z,59.28
2022-08-26T06:04:26.970Z,52.80
2022-08-26T06:06:59.020Z,56.90
2022-08-26T06:09:28.324Z,55.38
2022-08-26T06:11:58.828Z,59.65
2022-08-26T06:14:27.778Z,50.20
2022-08-26T06:16:58.941Z,56.88
2022-08-26T06:19:33.038Z,55.30
2022-08-26T06:22:24.128Z,58.38
2022-08-26T06:25:12.129Z,45.30
2022-08-26T06:27:41.404Z,52.03
2022-08-26T06:30:11.566Z,53.97
2022-08-26T06:32:42.812Z,41.15
2022-08-26T06:35:12.413Z,50.30
2022-08-26T06:37:42.884Z,51.80
2022-08-26T06:40:12.745Z,45.10
2022-08-26T06:42:42.191Z,46.00
2022-08-26T06:45:13.082Z,53.28
2022-08-26T06:47:43.948Z,56.92
2022-08-26T06:50:13.942Z,44.83
2022-08-26T06:52:43.715Z,42.38
2022-08-26T06:55:14.266Z,37.47
2022-08-26T06:57:43.432Z,64.32
2022-08-26T07:00:14.036Z,43.20
2022-08-26T07:02:46.842Z,51.72
2022-08-26T07:05:16.664Z,45.47
2022-08-26T07:07:45.740Z,47.75
2022-08-26T07:10:14.902Z,41.33
2022-08-26T07:12:47.082Z,37.15
2022-08-26T07:15:16.780Z,40.10
2022-08-26T07:17:47.829Z,36.35
2022-08-26T07:20:18.122Z,33.40
2022-08-26T07:22:48.689Z,38.70
2022-08-26T07:25:19.308Z,40.25
2022-08-26T07:27:54.096Z,38.03
2022-08-26T07:30:23.679Z,35.33
2022-08-26T07:32:56.621Z,40.33
2022-08-26T07:35:26.631Z,45.55
2022-08-26T07:37:57.168Z,38.40
2022-08-26T07:40:26.432Z,39.45
2022-08-26T07:42:55.566Z,48.42
2022-08-26T07:45:24.968Z,38.45
2022-08-26T07:47:56.482Z,38.03
2022-08-26T07:50:49.815Z,39.53
2022-08-26T07:53:16.206Z,46.08
2022-08-26T07:55:47.341Z,41.17
2022-08-26T07:58:16.746Z,48.45
2022-08-26T08:00:46.417Z,43.85
2022-08-26T08:03:17.414Z,35.00
2022-08-26T08:05:47.278Z,40.85
2022-08-26T08:08:26.376Z,35.70
2022-08-26T08:10:57.270Z,34.85
2022-08-26T08:13:26.554Z,31.77
2022-08-26T08:15:55.524Z,29.02
2022-08-26T08:18:28.513Z,30.58
2022-08-26T08:21:10.832Z,34.88
2022-08-26T08:23:47.349Z,39.17
2022-08-26T08:26:16.869Z,24.33
2022-08-26T08:28:46.301Z,29.23
2022-08-26T08:31:45.027Z,29.08
2022-08-26T08:34:12.270Z,31.42
2022-08-26T08:36:41.630Z,37.40
2022-08-26T08:39:11.714Z,27.10
2022-08-26T08:42:06.510Z,23.90
2022-08-26T08:44:39.124Z,34.38
2022-08-26T08:47:26.976Z,22.83
2022-08-26T08:50:04.873Z,28.15
2022-08-26T08:52:37.156Z,27.43
2022-08-26T08:55:11.153Z,29.38
2022-08-26T08:57:54.575Z,22.50
2022-08-26T09:00:30.588Z,23.10
2022-08-26T09:03:08.833Z,28.00
2022-08-26T09:05:48.730Z,27.48
2022-08-26T09:08:23.254Z,22.63
2022-08-26T09:10:56.520Z,23.08
2022-08-26T09:13:27.525Z,25.15
2022-08-26T09:16:06.746Z,17.17
2022-08-26T09:18:52.852Z,24.42
2022-08-26T09:21:26.054Z,28.38
2022-08-26T09:23:56.925Z,24.60
2022-08-26T09:26:30.642Z,25.38
2022-08-26T09:29:02.894Z,19.73
2022-08-26T09:31:35.363Z,17.15
2022-08-26T09:34:13.124Z,28.75
2022-08-26T09:36:50.329Z,27.45
2022-08-26T09:39:33.470Z,22.73
2022-08-26T09:42:10.000Z,17.13
2022-08-26T09:44:55.886Z,18.05
2022-08-26T09:47:31.776Z,16.80
2022-08-26T09:50:12.447Z,15.93
2022-08-26T09:52:43.304Z,18.35
2022-08-26T09:55:16.436Z,17.05
2022-08-26T09:57:48.912Z,26.95
2022-08-26T10:00:31.943Z,17.58
2022-08-26T10:03:04.479Z,11.23
2022-08-26T10:05:41.034Z,11.95
2022-08-26T10:08:28.600Z,13.00
2022-08-26T10:10:58.962Z,12.95
2022-08-26T10:13:34.365Z,20.40
2022-08-26T10:16:15.848Z,14.13
2022-08-26T10:18:48.752Z,15.50
2022-08-26T10:21:25.676Z,18.23
2022-08-26T10:24:00.466Z,12.25
2022-08-26T10:26:40.728Z,14.35
2022-08-26T10:29:15.986Z,15.88
2022-08-26T10:31:51.393Z,15.63
2022-08-26T10:34:21.380Z,12.20
2022-08-26T10:37:14.896Z,13.48
2022-08-26T10:39:58.462Z,17.38
2022-08-26T10:42:35.367Z,14.30
2022-08-26T10:45:14.861Z,16.95
2022-08-26T10:47:49.756Z,13.13
2022-08-26T10:50:19.744Z,12.98
2022-08-26T10:53:00.178Z,14.32
2022-08-26T10:55:37.200Z,15.93
2022-08-26T10:58:26.175Z,14.52
2022-08-26T11:01:23.270Z,14.45
2022-08-26T11:04:07.202Z,12.10
2022-08-26T11:06:36.987Z,12.43
2022-08-26T11:09:08.598Z,15.70
2022-08-26T11:11:50.475Z,11.57
2022-08-26T11:14:41.046Z,14.70
2022-08-26T11:17:57.555Z,8.43
2022-08-26T11:20:36.906Z,17.90
2022-08-26T11:23:36.250Z,13.65
2022-08-26T11:26:35.476Z,13.00
2022-08-26T11:29:13.516Z,15.80
2022-08-26T11:31:57.680Z,12.48
2022-08-26T11:35:00.471Z,11.65
2022-08-26T11:37:37.567Z,12.85
2022-08-26T11:40:13.435Z,12.65
2022-08-26T11:42:49.181Z,12.20
2022-08-26T11:45:26.524Z,13.73
2022-08-26T11:47:55.664Z,10.57
2022-08-26T11:50:28.176Z,15.43
2022-08-26T11:53:02.014Z,16.83
2022-08-26T11:55:34.292Z,11.63
2022-08-26T11:58:07.512Z,12.07
2022-08-26T12:00:53.623Z,12.35
2022-08-26T12:03:26.363Z,16.95
2022-08-26T12:05:57.306Z,18.05
2022-08-26T12:08:31.165Z,8.07
2022-08-26T12:11:09.690Z,11.63
2022-08-26T12:13:39.308Z,9.13
2022-08-26T12:16:10.582Z,12.50
2022-08-26T12:18:40.681Z,13.32
2022-08-26T12:21:20.322Z,10.27
2022-08-26T12:23:52.882Z,7.93
2022-08-26T12:26:26.082Z,10.90
2022-08-26T12:28:58.688Z,10.73
2022-08-26T12:31:32.941Z,12.35
2022-08-26T12:34:05.014Z,9.75
2022-08-26T12:36:38.988Z,10.73
2022-08-26T12:39:10.705Z,13.07
2022-08-26T12:41:42.985Z,11.30
2022-08-26T12:44:37.357Z,11.43
2022-08-26T12:47:12.266Z,9.05
2022-08-26T12:49:43.024Z,14.27
2022-08-26T12:52:33.246Z,9.40
2022-08-26T12:55:06.971Z,11.27
2022-08-26T12:57:39.144Z,7.85
2022-08-26T13:00:32.787Z,12.98
2022-08-26T13:03:04.212Z,10.98
2022-08-26T13:05:35.812Z,12.10
2022-08-26T13:08:14.555Z,11.15
2022-08-26T13:10:46.655Z,8.13
2022-08-26T13:13:16.055Z,15.13
2022-08-26T13:15:45.085Z,12.43
2022-08-26T13:18:15.549Z,10.93
2022-08-26T13:20:45.622Z,12.13
2022-08-26T13:23:15.306Z,9.32
2022-08-26T13:25:45.114Z,12.10
2022-08-26T13:28:14.627Z,13.40
2022-08-26T13:30:47.855Z,13.80
2022-08-26T13:33:21.463Z,7.65
2022-08-26T13:35:50.428Z,12.77
2022-08-26T13:38:32.930Z,8.70
2022-08-26T13:41:03.634Z,16.83
2022-08-26T13:43:33.311Z,10.30
2022-08-26T13:46:02.719Z,12.15
2022-08-26T13:48:35.159Z,10.65
2022-08-26T13:51:08.952Z,11.80
2022-08-26T13:53:38.346Z,13.70
2022-08-26T13:56:11.240Z,10.73
2022-08-26T13:58:40.252Z,12.38
2022-08-26T14:01:10.052Z,13.20
2022-08-26T14:03:41.265Z,11.57
2022-08-26T14:06:11.076Z,10.68
2022-08-26T14:08:40.784Z,10.38
2022-08-26T14:11:10.174Z,9.48
2022-08-26T14:13:39.791Z,10.82
2022-08-26T14:16:13.506Z,11.25
2022-08-26T14:18:50.014Z,7.15
2022-08-26T14:21:21.644Z,7.07
2022-08-26T14:23:50.982Z,14.20
2022-08-26T14:26:28.539Z,7.97
2022-08-26T14:28:59.951Z,9.43
2022-08-26T14:31:30.156Z,10.85
2022-08-26T14:34:03.740Z,10.30
2022-08-26T14:36:33.069Z,8.38
2022-08-26T14:39:05.689Z,9.43
2022-08-26T14:41:37.191Z,11.15
2022-08-26T14:44:09.129Z,10.02
2022-08-26T14:46:44.100Z,6.85
2022-08-26T14:49:15.654Z,10.73
2022-08-26T14:51:44.975Z,10.10
2022-08-26T14:54:14.781Z,10.10
2022-08-26T14:56:49.038Z,12.65
2022-08-26T14:59:20.839Z,8.77
2022-08-26T15:01:50.525Z,9.65
2022-08-26T15:04:21.553Z,13.93
2022-08-26T15:06:51.326Z,8.55
2022-08-26T15:09:21.254Z,14.13
2022-08-26T15:11:50.402Z,12.05
2022-08-26T15:14:20.691Z,10.88
2022-08-26T15:16:51.938Z,10.95
2022-08-26T15:19:25.014Z,9.20
2022-08-26T15:21:54.427Z,9.10
2022-08-26T15:24:26.794Z,12.82
2022-08-26T15:26:56.473Z,6.45
2022-08-26T15:29:25.818Z,11.48
2022-08-26T15:31:57.448Z,7.53
2022-08-26T15:34:28.434Z,31.92
2022-08-26T15:36:57.645Z,18.67
2022-08-26T15:39:26.618Z,11.02
2022-08-26T15:41:56.550Z,10.75
2022-08-26T15:44:27.571Z,11.18
2022-08-26T15:46:58.829Z,18.27
2022-08-26T15:49:29.627Z,7.28
2022-08-26T15:51:58.946Z,11.15
2022-08-26T15:54:28.010Z,12.95
2022-08-26T15:56:59.360Z,11.20
2022-08-26T15:59:28.638Z,8.88
2022-08-26T16:01:57.823Z,13.40
2022-08-26T16:04:28.310Z,8.43
2022-08-26T16:06:57.586Z,10.55
2022-08-26T16:09:27.839Z,23.55
2022-08-26T16:12:00.214Z,8.82
2022-08-26T16:14:29.751Z,10.70
2022-08-26T16:16:58.764Z,11.10
2022-08-26T16:19:29.151Z,12.25
2022-08-26T16:21:58.327Z,6.82
2022-08-26T16:24:30.515Z,7.43
2022-08-26T16:26:59.964Z,17.10
2022-08-26T16:29:29.428Z,10.88
2022-08-26T16:31:58.684Z,10.07
2022-08-26T16:34:29.050Z,10.88
2022-08-26T16:36:58.496Z,9.52
2022-08-26T16:39:28.032Z,11.02
2022-08-26T16:41:57.225Z,12.38
2022-08-26T16:44:28.047Z,9.85
2022-08-26T16:47:00.171Z,8.65
2022-08-26T16:49:30.511Z,11.02
2022-08-26T16:51:59.471Z,11.73
2022-08-26T16:54:28.772Z,8.85
2022-08-26T16:56:58.091Z,16.20
2022-08-26T16:59:27.605Z,12.93
2022-08-26T17:01:56.829Z,15.07
2022-08-26T17:04:26.174Z,10.75
2022-08-26T17:06:58.086Z,13.02
2022-08-26T17:09:27.968Z,13.25
2022-08-26T17:11:57.169Z,15.65
2022-08-26T17:14:26.599Z,13.98
2022-08-26T17:16:55.645Z,9.93
2022-08-26T17:19:25.478Z,7.75
2022-08-26T17:21:54.487Z,14.65
2022-08-26T17:24:25.551Z,16.88
2022-08-26T17:26:55.615Z,11.13
2022-08-26T17:29:24.985Z,11.90
2022-08-26T17:31:54.275Z,12.73
2022-08-26T17:34:24.384Z,13.38
2022-08-26T17:36:53.445Z,18.63
2022-08-26T17:39:23.936Z,34.58
2022-08-26T17:41:53.086Z,16.88
2022-08-26T17:44:22.081Z,18.73
2022-08-26T17:46:51.160Z,15.18
2022-08-26T17:49:20.454Z,13.70
2022-08-26T17:51:50.282Z,16.35
2022-08-26T17:54:19.659Z,16.30
2022-08-26T17:56:50.134Z,14.73
2022-08-26T17:59:19.208Z,14.68
2022-08-26T18:01:49.220Z,15.98
2022-08-26T18:04:18.524Z,15.68
2022-08-26T18:06:47.617Z,14.40
2022-08-26T18:09:16.835Z,17.52
2022-08-26T18:11:45.844Z,21.98
2022-08-26T18:14:16.254Z,16.80
2022-08-26T18:16:45.469Z,17.35
2022-08-26T18:19:14.663Z,13.40
2022-08-26T18:21:43.963Z,18.13
2022-08-26T18:24:14.344Z,16.80
2022-08-26T18:26:48.867Z,16.35
2022-08-26T18:29:20.640Z,13.52
2022-08-26T18:31:49.678Z,16.08
2022-08-26T18:34:19.535Z,66.18
2022-08-26T18:36:49.968Z,57.25
2022-08-26T18:39:23.474Z,45.17
2022-08-26T18:41:53.552Z,27.00
2022-08-26T18:44:24.576Z,28.13
2022-08-26T18:46:55.090Z,28.85
2022-08-26T18:49:24.797Z,28.80
2022-08-26T18:51:53.948Z,23.05
2022-08-26T18:54:23.202Z,18.48
2022-08-26T18:56:52.284Z,34.78
2022-08-26T18:59:30.495Z,52.38
2022-08-26T19:02:00.322Z,36.05
2022-08-26T19:04:29.622Z,18.77
2022-08-26T19:06:58.710Z,23.33
2022-08-26T19:09:28.228Z,15.10
2022-08-26T19:11:58.141Z,15.00
2022-08-26T19:14:28.978Z,18.48
2022-08-26T19:17:01.204Z,17.15
2022-08-26T19:19:31.798Z,13.73
2022-08-26T19:22:03.163Z,11.10
2022-08-26T19:24:32.351Z,19.30
2022-08-26T19:27:03.667Z,16.90
2022-08-26T19:29:36.545Z,15.40
2022-08-26T19:32:07.097Z,18.17
2022-08-26T19:34:36.871Z,19.02
2022-08-26T19:37:06.138Z,20.73
2022-08-26T19:39:36.117Z,20.65
2022-08-26T19:42:05.558Z,20.90
2022-08-26T19:44:53.290Z,20.13
2022-08-26T19:47:22.593Z,15.68
2022-08-26T19:49:55.273Z,26.45
2022-08-26T19:52:30.047Z,28.23
2022-08-26T19:54:59.442Z,25.40
2022-08-26T19:57:28.813Z,16.15
2022-08-26T20:00:00.278Z,21.88
2022-08-26T20:02:30.661Z,15.27
2022-08-26T20:04:59.970Z,23.33
2022-08-26T20:07:28.951Z,18.88
2022-08-26T20:09:59.663Z,25.90
2022-08-26T20:12:29.323Z,18.77
2022-08-26T20:14:59.836Z,15.10
2022-08-26T20:17:29.089Z,24.17
2022-08-26T20:20:32.803Z,22.35
2022-08-26T20:23:05.257Z,19.40
2022-08-26T20:25:35.491Z,14.68
2022-08-26T20:28:05.212Z,21.65
2022-08-26T20:30:35.603Z,23.48
2022-08-26T20:33:04.582Z,30.80
2022-08-26T20:35:34.015Z,21.67
2022-08-26T20:38:03.101Z,19.80
2022-08-26T20:40:32.531Z,35.80
2022-08-26T20:43:01.872Z,36.25
2022-08-26T20:45:30.839Z,25.55
2022-08-26T20:48:01.278Z,19.55
2022-08-26T20:50:33.205Z,18.23
2022-08-26T20:53:02.441Z,24.77
2022-08-26T20:55:31.707Z,25.55
2022-08-26T20:58:00.800Z,25.80
2022-08-26T21:00:29.780Z,20.10
2022-08-26T21:03:01.251Z,20.88
2022-08-26T21:05:30.225Z,17.75
2022-08-26T21:07:59.793Z,22.50
2022-08-26T21:10:30.346Z,19.60
2022-08-26T21:12:59.724Z,20.17
2022-08-26T21:15:29.019Z,17.17
2022-08-26T21:18:03.380Z,19.55
2022-08-26T21:20:33.098Z,16.88
2022-08-26T21:23:02.493Z,19.40
2022-08-26T21:25:31.491Z,17.95
2022-08-26T21:28:00.575Z,24.20
2022-08-26T21:30:30.041Z,19.30
2022-08-26T21:32:59.545Z,21.02
2022-08-26T21:35:29.990Z,24.75
2022-08-26T21:37:59.611Z,21.27
2022-08-26T21:40:29.336Z,23.02
2022-08-26T21:42:58.510Z,17.65
2022-08-26T21:45:27.780Z,21.52
2022-08-26T21:47:57.093Z,22.75
2022-08-26T21:50:26.132Z,17.45
2022-08-26T21:52:56.879Z,19.40
2022-08-26T21:55:25.954Z,16.90
2022-08-26T21:57:55.107Z,19.42
2022-08-26T22:00:24.579Z,16.15
2022-08-26T22:02:53.567Z,19.77
2022-08-26T22:05:22.624Z,18.38
2022-08-26T22:07:51.797Z,18.77
2022-08-26T22:12:51.555Z,29.92
2022-08-26T22:15:23.312Z,31.48
2022-08-26T22:17:52.306Z,24.35
2022-08-26T22:20:21.625Z,18.48
2022-08-26T22:22:50.724Z,18.90
2022-08-26T22:25:20.186Z,20.92
2022-08-26T22:27:50.805Z,23.25
2022-08-26T22:30:20.470Z,15.50
2022-08-26T22:32:49.619Z,21.85
2022-08-26T22:35:29.036Z,19.83
2022-08-26T22:37:59.059Z,19.10
2022-08-26T22:40:28.417Z,20.70
2022-08-26T22:43:00.106Z,20.63
2022-08-26T22:45:31.370Z,19.98
2022-08-26T22:48:01.586Z,21.13
2022-08-26T22:50:30.893Z,14.73
2022-08-26T22:57:59.255Z,17.15
2022-08-26T23:00:32.347Z,18.13
2022-08-26T23:03:03.303Z,16.55
2022-08-26T23:05:32.954Z,17.02
2022-08-26T23:08:03.018Z,20.77
2022-08-26T23:10:32.633Z,18.38
2022-08-26T23:13:03.778Z,18.80
2022-08-26T23:15:33.134Z,17.75
2022-08-26T23:18:02.511Z,19.98
2022-08-26T23:20:32.232Z,20.92
2022-08-26T23:23:02.344Z,20.65
2022-08-26T23:25:32.463Z,21.02
2022-08-26T23:28:03.883Z,15.05
2022-08-26T23:30:34.529Z,14.02
2022-08-26T23:33:03.850Z,18.23
2022-08-26T23:35:31.998Z,17.15
2022-08-26T23:38:02.819Z,18.40
2022-08-26T23:40:35.765Z,16.73
2022-08-26T23:43:08.666Z,20.83
2022-08-26T23:45:37.868Z,20.65
2022-08-26T23:48:07.640Z,17.65
2022-08-26T23:50:54.274Z,17.65
2022-08-26T23:53:24.371Z,18.08
2022-08-26T23:55:54.883Z,16.23
2022-08-26T23:58:25.585Z,18.40
